sensor_id;sensor_type;location;lat;lon;timestamp;pressure;altitude;pressure_sealevel;temperature;humidity
58622;BME280;44389;51.578;5.456;2024-03-25T00:01:19;100677.13;;;2.78;100.00
58622;BME280;44389;51.578;5.456;2024-03-25T00:03:45;100679.47;;;2.75;100.00
58622;BME280;44389;51.578;5.456;2024-03-25T00:06:10;100672.47;;;2.71;100.00
58622;BME280;44389;51.578;5.456;2024-03-25T00:08:35;100668.75;;;2.66;100.00
58622;BME280;44389;51.578;5.456;2024-03-25T00:11:01;100669.38;;;2.61;100.00
58622;BME280;44389;51.578;5.456;2024-03-25T00:13:26;100670.00;;;2.57;100.00
58622;BME280;44389;51.578;5.456;2024-03-25T00:15:52;100665.78;;;2.58;100.00
58622;BME280;44389;51.578;5.456;2024-03-25T00:18:17;100663.16;;;2.56;100.00
58622;BME280;44389;51.578;5.456;2024-03-25T00:20:42;100671.56;;;2.55;100.00
58622;BME280;44389;51.578;5.456;2024-03-25T00:23:08;100666.47;;;2.55;100.00
58622;BME280;44389;51.578;5.456;2024-03-25T00:25:33;100662.97;;;2.53;100.00
58622;BME280;44389;51.578;5.456;2024-03-25T00:27:58;100659.44;;;2.51;100.00
58622;BME280;44389;51.578;5.456;2024-03-25T00:30:24;100667.09;;;2.51;100.00
58622;BME280;44389;51.578;5.456;2024-03-25T00:32:49;100661.00;;;2.49;100.00
58622;BME280;44389;51.578;5.456;2024-03-25T00:35:14;100653.03;;;2.43;100.00
58622;BME280;44389;51.578;5.456;2024-03-25T00:37:40;100651.28;;;2.42;100.00
58622;BME280;44389;51.578;5.456;2024-03-25T00:40:06;100651.97;;;2.39;100.00
58622;BME280;44389;51.578;5.456;2024-03-25T00:42:32;100651.00;;;2.37;100.00
58622;BME280;44389;51.578;5.456;2024-03-25T00:44:57;100656.78;;;2.35;100.00
58622;BME280;44389;51.578;5.456;2024-03-25T00:47:23;100657.47;;;2.32;100.00
58622;BME280;44389;51.578;5.456;2024-03-25T00:49:48;100661.50;;;2.28;100.00
58622;BME280;44389;51.578;5.456;2024-03-25T00:52:13;100656.53;;;2.30;100.00
58622;BME280;44389;51.578;5.456;2024-03-25T00:54:39;100658.09;;;2.28;100.00
58622;BME280;44389;51.578;5.456;2024-03-25T00:57:04;100659.84;;;2.29;100.00
58622;BME280;44389;51.578;5.456;2024-03-25T00:59:29;100657.31;;;2.29;100.00
58622;BME280;44389;51.578;5.456;2024-03-25T01:01:55;100661.31;;;2.25;100.00
58622;BME280;44389;51.578;5.456;2024-03-25T01:04:20;100669.72;;;2.24;100.00
58622;BME280;44389;51.578;5.456;2024-03-25T01:06:45;100661.94;;;2.21;100.00
58622;BME280;44389;51.578;5.456;2024-03-25T01:09:11;100664.47;;;2.21;100.00
58622;BME280;44389;51.578;5.456;2024-03-25T01:11:36;100673.66;;;2.19;100.00
58622;BME280;44389;51.578;5.456;2024-03-25T01:14:02;100679.34;;;2.15;100.00
58622;BME280;44389;51.578;5.456;2024-03-25T01:16:27;100672.59;;;2.16;100.00
58622;BME280;44389;51.578;5.456;2024-03-25T01:18:52;100673.41;;;2.14;100.00
58622;BME280;44389;51.578;5.456;2024-03-25T01:21:18;100669.09;;;2.13;100.00
58622;BME280;44389;51.578;5.456;2024-03-25T01:23:43;100663.91;;;2.12;100.00
58622;BME280;44389;51.578;5.456;2024-03-25T01:26:08;100673.28;;;2.13;100.00
58622;BME280;44389;51.578;5.456;2024-03-25T01:28:34;100667.25;;;2.11;100.00
58622;BME280;44389;51.578;5.456;2024-03-25T01:30:59;100676.34;;;2.07;100.00
58622;BME280;44389;51.578;5.456;2024-03-25T01:33:25;100669.41;;;2.05;100.00
58622;BME280;44389;51.578;5.456;2024-03-25T01:35:51;100680.34;;;2.04;100.00
58622;BME280;44389;51.578;5.456;2024-03-25T01:38:16;100678.00;;;2.07;100.00
58622;BME280;44389;51.578;5.456;2024-03-25T01:40:41;100680.34;;;2.04;100.00
58622;BME280;44389;51.578;5.456;2024-03-25T01:43:07;100678.78;;;2.06;100.00
58622;BME280;44389;51.578;5.456;2024-03-25T01:45:33;100679.50;;;2.03;100.00
58622;BME280;44389;51.578;5.456;2024-03-25T01:48:04;100671.66;;;2.00;100.00
58622;BME280;44389;51.578;5.456;2024-03-25T01:50:33;100669.03;;;1.98;100.00
58622;BME280;44389;51.578;5.456;2024-03-25T01:52:59;100656.22;;;1.97;100.00
58622;BME280;44389;51.578;5.456;2024-03-25T01:55:27;100664.53;;;1.94;100.00
58622;BME280;44389;51.578;5.456;2024-03-25T01:57:53;100661.00;;;1.92;100.00
58622;BME280;44389;51.578;5.456;2024-03-25T02:00:19;100655.06;;;1.92;100.00
58622;BME280;44389;51.578;5.456;2024-03-25T02:02:45;100667.47;;;1.87;100.00
58622;BME280;44389;51.578;5.456;2024-03-25T02:05:13;100664.94;;;1.87;100.00
58622;BME280;44389;51.578;5.456;2024-03-25T02:07:40;100667.47;;;1.87;100.00
58622;BME280;44389;51.578;5.456;2024-03-25T02:10:07;100673.16;;;1.83;100.00
58622;BME280;44389;51.578;5.456;2024-03-25T02:12:35;100668.09;;;1.83;100.00
58622;BME280;44389;51.578;5.456;2024-03-25T02:15:01;100669.94;;;1.86;100.00
58622;BME280;44389;51.578;5.456;2024-03-25T02:17:26;100668.47;;;1.89;100.00
58622;BME280;44389;51.578;5.456;2024-03-25T02:19:52;100670.84;;;1.86;100.00
58622;BME280;44389;51.578;5.456;2024-03-25T02:22:17;100674.16;;;1.85;100.00
58622;BME280;44389;51.578;5.456;2024-03-25T02:24:46;100669.06;;;1.85;100.00
58622;BME280;44389;51.578;5.456;2024-03-25T02:27:14;100665.53;;;1.83;100.00
58622;BME280;44389;51.578;5.456;2024-03-25T02:29:41;100663.78;;;1.82;100.00
58622;BME280;44389;51.578;5.456;2024-03-25T02:32:09;100669.66;;;1.81;100.00
58622;BME280;44389;51.578;5.456;2024-03-25T02:34:39;100667.31;;;1.84;100.00
58622;BME280;44389;51.578;5.456;2024-03-25T02:37:05;100659.06;;;1.88;100.00
58622;BME280;44389;51.578;5.456;2024-03-25T02:39:31;100658.22;;;1.88;100.00
58622;BME280;44389;51.578;5.456;2024-03-25T02:41:57;100657.31;;;1.87;100.00
58622;BME280;44389;51.578;5.456;2024-03-25T02:44:23;100646.66;;;1.93;100.00
58622;BME280;44389;51.578;5.456;2024-03-25T02:46:49;100644.22;;;1.94;100.00
58622;BME280;44389;51.578;5.456;2024-03-25T02:49:14;100642.44;;;1.93;100.00
58622;BME280;44389;51.578;5.456;2024-03-25T02:51:40;100638.25;;;1.94;100.00
58622;BME280;44389;51.578;5.456;2024-03-25T02:54:05;100639.03;;;1.93;100.00
58622;BME280;44389;51.578;5.456;2024-03-25T02:56:30;100640.69;;;1.92;100.00
58622;BME280;44389;51.578;5.456;2024-03-25T02:58:56;100643.22;;;1.92;100.00
58622;BME280;44389;51.578;5.456;2024-03-25T03:01:21;100639.53;;;1.87;100.00
58622;BME280;44389;51.578;5.456;2024-03-25T03:03:47;100632.50;;;1.83;100.00
58622;BME280;44389;51.578;5.456;2024-03-25T03:06:12;100636.03;;;1.85;100.00
58622;BME280;44389;51.578;5.456;2024-03-25T03:08:38;100634.66;;;1.90;100.00
58622;BME280;44389;51.578;5.456;2024-03-25T03:11:03;100631.22;;;1.90;100.00
58622;BME280;44389;51.578;5.456;2024-03-25T03:13:29;100631.22;;;1.90;100.00
58622;BME280;44389;51.578;5.456;2024-03-25T03:15:54;100625.78;;;1.84;100.00
58622;BME280;44389;51.578;5.456;2024-03-25T03:18:19;100629.00;;;1.81;100.00
58622;BME280;44389;51.578;5.456;2024-03-25T03:20:44;100623.63;;;1.76;100.00
58622;BME280;44389;51.578;5.456;2024-03-25T03:23:10;100630.19;;;1.73;100.00
58622;BME280;44389;51.578;5.456;2024-03-25T03:25:35;100629.41;;;1.74;100.00
58622;BME280;44389;51.578;5.456;2024-03-25T03:28:01;100623.16;;;1.69;100.00
58622;BME280;44389;51.578;5.456;2024-03-25T03:30:27;100617.31;;;1.70;100.00
58622;BME280;44389;51.578;5.456;2024-03-25T03:32:52;100616.13;;;1.64;100.00
58622;BME280;44389;51.578;5.456;2024-03-25T03:35:18;100616.75;;;1.60;100.00
58622;BME280;44389;51.578;5.456;2024-03-25T03:37:43;100614.97;;;1.59;100.00
58622;BME280;44389;51.578;5.456;2024-03-25T03:40:09;100614.41;;;1.50;100.00
58622;BME280;44389;51.578;5.456;2024-03-25T03:42:36;100612.84;;;1.52;100.00
58622;BME280;44389;51.578;5.456;2024-03-25T03:45:01;100620.09;;;1.46;100.00
58622;BME280;44389;51.578;5.456;2024-03-25T03:47:26;100622.72;;;1.47;100.00
58622;BME280;44389;51.578;5.456;2024-03-25T03:49:52;100616.75;;;1.47;100.00
58622;BME280;44389;51.578;5.456;2024-03-25T03:52:17;100620.88;;;1.45;100.00
58622;BME280;44389;51.578;5.456;2024-03-25T03:54:42;100623.31;;;1.43;100.00
58622;BME280;44389;51.578;5.456;2024-03-25T03:57:08;100620.47;;;1.39;100.00
58622;BME280;44389;51.578;5.456;2024-03-25T03:59:33;100629.66;;;1.37;100.00
58622;BME280;44389;51.578;5.456;2024-03-25T04:01:59;100625.94;;;1.31;100.00
58622;BME280;44389;51.578;5.456;2024-03-25T04:04:25;100620.97;;;1.33;100.00
58622;BME280;44389;51.578;5.456;2024-03-25T04:06:51;100625.25;;;1.34;100.00
58622;BME280;44389;51.578;5.456;2024-03-25T04:09:16;100621.66;;;1.30;100.00
58622;BME280;44389;51.578;5.456;2024-03-25T04:11:41;100630.16;;;1.31;100.00
58622;BME280;44389;51.578;5.456;2024-03-25T04:14:07;100623.03;;;1.25;100.00
58622;BME280;44389;51.578;5.456;2024-03-25T04:16:32;100619.69;;;1.26;100.00
58622;BME280;44389;51.578;5.456;2024-03-25T04:18:58;100624.41;;;1.20;100.00
58622;BME280;44389;51.578;5.456;2024-03-25T04:21:23;100620.28;;;1.22;100.00
58622;BME280;44389;51.578;5.456;2024-03-25T04:23:49;100617.06;;;1.25;100.00
58622;BME280;44389;51.578;5.456;2024-03-25T04:26:15;100615.88;;;1.20;100.00
58622;BME280;44389;51.578;5.456;2024-03-25T04:28:40;100614.03;;;1.17;100.00
58622;BME280;44389;51.578;5.456;2024-03-25T04:31:07;100610.31;;;1.12;100.00
58622;BME280;44389;51.578;5.456;2024-03-25T04:33:33;100610.63;;;1.17;100.00
58622;BME280;44389;51.578;5.456;2024-03-25T04:35:58;100614.63;;;1.13;100.00
58622;BME280;44389;51.578;5.456;2024-03-25T04:38:24;100615.50;;;1.13;100.00
58622;BME280;44389;51.578;5.456;2024-03-25T04:40:49;100615.22;;;1.09;100.00
58622;BME280;44389;51.578;5.456;2024-03-25T04:43:15;100618.34;;;1.05;100.00
58622;BME280;44389;51.578;5.456;2024-03-25T04:45:41;100610.25;;;0.97;100.00
58622;BME280;44389;51.578;5.456;2024-03-25T04:48:06;100615.31;;;0.97;100.00
58622;BME280;44389;51.578;5.456;2024-03-25T04:50:33;100619.31;;;0.93;100.00
58622;BME280;44389;51.578;5.456;2024-03-25T04:52:58;100615.09;;;0.94;100.00
58622;BME280;44389;51.578;5.456;2024-03-25T04:55:24;100619.91;;;0.89;100.00
58622;BME280;44389;51.578;5.456;2024-03-25T04:57:49;100614.50;;;0.85;100.00
58622;BME280;44389;51.578;5.456;2024-03-25T05:00:14;100620.19;;;0.80;100.00
58622;BME280;44389;51.578;5.456;2024-03-25T05:02:40;100625.44;;;0.84;100.00
58622;BME280;44389;51.578;5.456;2024-03-25T05:05:05;100624.06;;;0.89;100.00
58622;BME280;44389;51.578;5.456;2024-03-25T05:07:32;100627.97;;;0.84;100.00
58622;BME280;44389;51.578;5.456;2024-03-25T05:09:57;100638.34;;;0.87;100.00
58622;BME280;44389;51.578;5.456;2024-03-25T05:12:22;100634.13;;;0.87;100.00
58622;BME280;44389;51.578;5.456;2024-03-25T05:14:48;100635.69;;;0.85;100.00
58622;BME280;44389;51.578;5.456;2024-03-25T05:17:13;100633.13;;;0.85;100.00
58622;BME280;44389;51.578;5.456;2024-03-25T05:19:38;100637.44;;;0.86;100.00
58622;BME280;44389;51.578;5.456;2024-03-25T05:22:04;100636.25;;;0.81;100.00
58622;BME280;44389;51.578;5.456;2024-03-25T05:24:29;100639.78;;;0.83;100.00
58622;BME280;44389;51.578;5.456;2024-03-25T05:26:54;100635.50;;;0.82;100.00
58622;BME280;44389;51.578;5.456;2024-03-25T05:29:19;100639.56;;;0.80;100.00
58622;BME280;44389;51.578;5.456;2024-03-25T05:32:01;100638.63;;;0.78;100.00
58622;BME280;44389;51.578;5.456;2024-03-25T05:34:28;100645.03;;;0.73;100.00
58622;BME280;44389;51.578;5.456;2024-03-25T05:36:54;100647.66;;;0.74;100.00
58622;BME280;44389;51.578;5.456;2024-03-25T05:39:19;100636.66;;;0.74;100.00
58622;BME280;44389;51.578;5.456;2024-03-25T05:41:45;100639.06;;;0.72;100.00
58622;BME280;44389;51.578;5.456;2024-03-25T05:44:10;100635.84;;;0.75;100.00
58622;BME280;44389;51.578;5.456;2024-03-25T05:46:35;100636.66;;;0.74;100.00
58622;BME280;44389;51.578;5.456;2024-03-25T05:49:04;100645.22;;;0.76;100.00
58622;BME280;44389;51.578;5.456;2024-03-25T05:51:31;100645.44;;;0.79;100.00
58622;BME280;44389;51.578;5.456;2024-03-25T05:53:58;100635.50;;;0.82;100.00
58622;BME280;44389;51.578;5.456;2024-03-25T05:56:23;100637.94;;;0.80;100.00
58622;BME280;44389;51.578;5.456;2024-03-25T05:58:50;100630.31;;;0.80;100.00
58622;BME280;44389;51.578;5.456;2024-03-25T06:01:15;100630.50;;;0.84;100.00
58622;BME280;44389;51.578;5.456;2024-03-25T06:03:40;100624.84;;;0.88;100.00
58622;BME280;44389;51.578;5.456;2024-03-25T06:06:05;100626.63;;;0.89;100.00
58622;BME280;44389;51.578;5.456;2024-03-25T06:08:31;100627.38;;;0.88;100.00
58622;BME280;44389;51.578;5.456;2024-03-25T06:11:00;100632.00;;;0.93;100.00
58622;BME280;44389;51.578;5.456;2024-03-25T06:13:26;100628.09;;;0.98;100.00
58622;BME280;44389;51.578;5.456;2024-03-25T06:15:51;100623.03;;;0.98;100.00
58622;BME280;44389;51.578;5.456;2024-03-25T06:18:17;100618.34;;;1.05;100.00
58622;BME280;44389;51.578;5.456;2024-03-25T06:20:42;100619.41;;;1.08;100.00
58622;BME280;44389;51.578;5.456;2024-03-25T06:23:07;100613.63;;;1.11;100.00
58622;BME280;44389;51.578;5.456;2024-03-25T06:25:32;100618.25;;;1.17;100.00
58622;BME280;44389;51.578;5.456;2024-03-25T06:27:58;100616.09;;;1.23;100.00
58622;BME280;44389;51.578;5.456;2024-03-25T06:30:23;100610.44;;;1.27;100.00
58622;BME280;44389;51.578;5.456;2024-03-25T06:33:07;100610.91;;;1.35;100.00
58622;BME280;44389;51.578;5.456;2024-03-25T06:35:51;100611.31;;;1.41;100.00
58622;BME280;44389;51.578;5.456;2024-03-25T06:38:20;100612.47;;;1.46;100.00
58622;BME280;44389;51.578;5.456;2024-03-25T06:40:45;100615.56;;;1.55;100.00
58622;BME280;44389;51.578;5.456;2024-03-25T06:43:11;100609.91;;;1.59;100.00
58622;BME280;44389;51.578;5.456;2024-03-25T06:45:37;100614.59;;;1.67;100.00
58622;BME280;44389;51.578;5.456;2024-03-25T06:48:02;100612.59;;;1.76;100.00
58622;BME280;44389;51.578;5.456;2024-03-25T06:50:27;100616.47;;;1.84;100.00
58622;BME280;44389;51.578;5.456;2024-03-25T06:52:53;100609.50;;;1.95;100.00
58622;BME280;44389;51.578;5.456;2024-03-25T06:55:18;100616.72;;;2.02;100.00
58622;BME280;44389;51.578;5.456;2024-03-25T06:57:47;100620.78;;;2.13;100.00
58622;BME280;44389;51.578;5.456;2024-03-25T07:00:12;100621.25;;;2.21;100.00
58622;BME280;44389;51.578;5.456;2024-03-25T07:02:38;100622.56;;;2.29;100.00
58622;BME280;44389;51.578;5.456;2024-03-25T07:05:04;100616.28;;;2.38;100.00
58622;BME280;44389;51.578;5.456;2024-03-25T07:07:30;100614.34;;;2.49;100.00
58622;BME280;44389;51.578;5.456;2024-03-25T07:09:55;100612.41;;;2.59;100.00
58622;BME280;44389;51.578;5.456;2024-03-25T07:12:20;100612.00;;;2.67;100.00
58622;BME280;44389;51.578;5.456;2024-03-25T07:14:46;100611.75;;;2.77;100.00
58622;BME280;44389;51.578;5.456;2024-03-25T07:17:11;100611.56;;;2.89;100.00
58622;BME280;44389;51.578;5.456;2024-03-25T07:19:36;100611.22;;;2.97;100.00
58622;BME280;44389;51.578;5.456;2024-03-25T07:22:02;100610.22;;;3.10;100.00
58622;BME280;44389;51.578;5.456;2024-03-25T07:24:27;100606.84;;;3.26;100.00
58622;BME280;44389;51.578;5.456;2024-03-25T07:26:53;100604.13;;;3.38;100.00
58622;BME280;44389;51.578;5.456;2024-03-25T07:29:18;100602.16;;;3.49;100.00
58622;BME280;44389;51.578;5.456;2024-03-25T07:31:43;100604.41;;;3.59;100.00
58622;BME280;44389;51.578;5.456;2024-03-25T07:34:09;100609.19;;;3.70;100.00
58622;BME280;44389;51.578;5.456;2024-03-25T07:36:37;100597.78;;;3.79;100.00
58622;BME280;44389;51.578;5.456;2024-03-25T07:39:02;100595.81;;;3.90;100.00
58622;BME280;44389;51.578;5.456;2024-03-25T07:41:27;100601.97;;;3.94;100.00
58622;BME280;44389;51.578;5.456;2024-03-25T07:43:53;100602.66;;;4.08;100.00
58622;BME280;44389;51.578;5.456;2024-03-25T07:46:18;100603.69;;;4.11;100.00
58622;BME280;44389;51.578;5.456;2024-03-25T07:48:44;100612.72;;;4.21;100.00
58622;BME280;44389;51.578;5.456;2024-03-25T07:51:09;100614.78;;;4.28;100.00
58622;BME280;44389;51.578;5.456;2024-03-25T07:53:35;100615.88;;;4.34;100.00
58622;BME280;44389;51.578;5.456;2024-03-25T07:56:00;100621.47;;;4.43;100.00
58622;BME280;44389;51.578;5.456;2024-03-25T07:58:25;100626.25;;;4.53;100.00
58622;BME280;44389;51.578;5.456;2024-03-25T08:00:51;100619.69;;;4.58;100.00
58622;BME280;44389;51.578;5.456;2024-03-25T08:03:16;100616.94;;;4.72;100.00
58622;BME280;44389;51.578;5.456;2024-03-25T08:05:41;100629.94;;;4.76;100.00
58622;BME280;44389;51.578;5.456;2024-03-25T08:08:07;100622.81;;;4.87;100.00
58622;BME280;44389;51.578;5.456;2024-03-25T08:10:32;100623.56;;;5.03;100.00
58622;BME280;44389;51.578;5.456;2024-03-25T08:12:57;100617.84;;;5.08;100.00
58622;BME280;44389;51.578;5.456;2024-03-25T08:15:22;100617.59;;;5.20;100.00
58622;BME280;44389;51.578;5.456;2024-03-25T08:17:48;100621.00;;;5.21;100.00
58622;BME280;44389;51.578;5.456;2024-03-25T08:20:13;100628.38;;;5.33;100.00
58622;BME280;44389;51.578;5.456;2024-03-25T08:22:38;100628.44;;;5.34;100.00
58622;BME280;44389;51.578;5.456;2024-03-25T08:25:04;100632.75;;;5.35;100.00
58622;BME280;44389;51.578;5.456;2024-03-25T08:27:29;100632.31;;;5.44;100.00
58622;BME280;44389;51.578;5.456;2024-03-25T08:29:55;100637.03;;;5.54;100.00
58622;BME280;44389;51.578;5.456;2024-03-25T08:32:20;100629.81;;;5.64;100.00
58622;BME280;44389;51.578;5.456;2024-03-25T08:34:45;100627.72;;;5.74;100.00
58622;BME280;44389;51.578;5.456;2024-03-25T08:37:11;100624.44;;;5.77;100.00
58622;BME280;44389;51.578;5.456;2024-03-25T08:39:36;100627.25;;;5.83;100.00
58622;BME280;44389;51.578;5.456;2024-03-25T08:42:01;100612.47;;;5.76;100.00
58622;BME280;44389;51.578;5.456;2024-03-25T08:44:27;100617.19;;;5.86;100.00
58622;BME280;44389;51.578;5.456;2024-03-25T08:46:52;100620.97;;;5.94;100.00
58622;BME280;44389;51.578;5.456;2024-03-25T08:49:17;100617.75;;;5.99;100.00
58622;BME280;44389;51.578;5.456;2024-03-25T08:51:42;100612.47;;;6.14;100.00
58622;BME280;44389;51.578;5.456;2024-03-25T08:54:08;100604.13;;;6.39;100.00
58622;BME280;44389;51.578;5.456;2024-03-25T08:56:33;100614.16;;;6.54;100.00
58622;BME280;44389;51.578;5.456;2024-03-25T08:58:58;100612.66;;;6.59;100.00
58622;BME280;44389;51.578;5.456;2024-03-25T09:01:23;100613.69;;;6.63;100.00
58622;BME280;44389;51.578;5.456;2024-03-25T09:03:49;100614.16;;;6.75;100.00
58622;BME280;44389;51.578;5.456;2024-03-25T09:06:15;100614.78;;;6.90;100.00
58622;BME280;44389;51.578;5.456;2024-03-25T09:08:41;100612.16;;;7.10;100.00
58622;BME280;44389;51.578;5.456;2024-03-25T09:11:25;100608.03;;;7.35;100.00
58622;BME280;44389;51.578;5.456;2024-03-25T09:13:51;100608.78;;;7.32;100.00
58622;BME280;44389;51.578;5.456;2024-03-25T09:16:17;100599.72;;;7.42;100.00
58622;BME280;44389;51.578;5.456;2024-03-25T09:18:42;100602.72;;;7.53;100.00
58622;BME280;44389;51.578;5.456;2024-03-25T09:21:08;100592.03;;;7.65;100.00
58622;BME280;44389;51.578;5.456;2024-03-25T09:23:33;100589.34;;;7.84;100.00
58622;BME280;44389;51.578;5.456;2024-03-25T09:25:58;100587.91;;;7.93;100.00
58622;BME280;44389;51.578;5.456;2024-03-25T09:28:23;100581.28;;;8.23;100.00
58622;BME280;44389;51.578;5.456;2024-03-25T09:30:49;100585.78;;;8.53;100.00
58622;BME280;44389;51.578;5.456;2024-03-25T09:33:14;100581.56;;;8.81;100.00
58622;BME280;44389;51.578;5.456;2024-03-25T09:35:40;100574.13;;;8.90;100.00
58622;BME280;44389;51.578;5.456;2024-03-25T09:38:05;100571.50;;;9.16;100.00
58622;BME280;44389;51.578;5.456;2024-03-25T09:40:31;100565.47;;;9.43;100.00
58622;BME280;44389;51.578;5.456;2024-03-25T09:42:56;100564.91;;;9.53;100.00
58622;BME280;44389;51.578;5.456;2024-03-25T09:45:24;100567.47;;;9.53;100.00
58622;BME280;44389;51.578;5.456;2024-03-25T09:47:53;100557.28;;;9.87;100.00
58622;BME280;44389;51.578;5.456;2024-03-25T09:50:19;100560.13;;;10.30;100.00
58622;BME280;44389;51.578;5.456;2024-03-25T09:52:46;100555.19;;;10.37;100.00
58622;BME280;44389;51.578;5.456;2024-03-25T09:55:11;100556.56;;;10.58;100.00
58622;BME280;44389;51.578;5.456;2024-03-25T09:57:37;100548.94;;;10.98;100.00
58622;BME280;44389;51.578;5.456;2024-03-25T10:00:05;100549.94;;;11.44;95.01
58622;BME280;44389;51.578;5.456;2024-03-25T10:02:32;100545.28;;;11.69;93.21
58622;BME280;44389;51.578;5.456;2024-03-25T10:04:59;100553.66;;;12.47;90.75
58622;BME280;44389;51.578;5.456;2024-03-25T10:07:25;100544.31;;;13.12;77.88
58622;BME280;44389;51.578;5.456;2024-03-25T10:09:53;100543.31;;;13.67;75.37
58622;BME280;44389;51.578;5.456;2024-03-25T10:12:18;100536.28;;;13.57;67.38
58622;BME280;44389;51.578;5.456;2024-03-25T10:14:45;100536.91;;;13.37;63.75
58622;BME280;44389;51.578;5.456;2024-03-25T10:17:10;100531.38;;;13.78;65.28
58622;BME280;44389;51.578;5.456;2024-03-25T10:19:36;100529.44;;;13.62;63.40
58622;BME280;44389;51.578;5.456;2024-03-25T10:22:11;100527.56;;;13.45;65.47
58622;BME280;44389;51.578;5.456;2024-03-25T10:24:39;100537.28;;;13.02;62.48
58622;BME280;44389;51.578;5.456;2024-03-25T10:27:05;100527.03;;;13.08;63.18
58622;BME280;44389;51.578;5.456;2024-03-25T10:29:31;100523.91;;;13.34;60.53
58622;BME280;44389;51.578;5.456;2024-03-25T10:32:00;100518.38;;;14.63;61.51
58622;BME280;44389;51.578;5.456;2024-03-25T10:34:25;100515.06;;;14.81;57.92
58622;BME280;44389;51.578;5.456;2024-03-25T10:36:52;100520.91;;;14.58;56.05
58622;BME280;44389;51.578;5.456;2024-03-25T10:39:26;100512.38;;;14.70;50.76
58622;BME280;44389;51.578;5.456;2024-03-25T10:41:55;100511.69;;;14.96;53.05
58622;BME280;44389;51.578;5.456;2024-03-25T10:44:22;100503.88;;;14.91;52.47
58622;BME280;44389;51.578;5.456;2024-03-25T10:46:50;100501.22;;;14.82;49.38
58622;BME280;44389;51.578;5.456;2024-03-25T10:50:18;100502.00;;;14.67;50.44
58622;BME280;44389;51.578;5.456;2024-03-25T10:52:18;100489.47;;;13.38;48.27
58622;BME280;44389;51.578;5.456;2024-03-25T10:54:49;100496.44;;;13.44;52.88
58622;BME280;44389;51.578;5.456;2024-03-25T10:57:15;100491.56;;;13.69;51.75
58622;BME280;44389;51.578;5.456;2024-03-25T10:59:42;100484.22;;;14.10;48.79
58622;BME280;44389;51.578;5.456;2024-03-25T11:02:09;100482.97;;;13.73;49.70
58622;BME280;44389;51.578;5.456;2024-03-25T11:04:35;100488.63;;;12.76;49.47
58622;BME280;44389;51.578;5.456;2024-03-25T11:07:08;100483.41;;;12.19;53.44
58622;BME280;44389;51.578;5.456;2024-03-25T11:09:34;100478.47;;;11.86;56.05
58622;BME280;44389;51.578;5.456;2024-03-25T11:12:01;100480.66;;;12.62;54.22
58622;BME280;44389;51.578;5.456;2024-03-25T11:14:26;100478.22;;;14.18;53.27
58622;BME280;44389;51.578;5.456;2024-03-25T11:16:53;100478.56;;;14.59;46.88
58622;BME280;44389;51.578;5.456;2024-03-25T11:19:20;100468.84;;;14.33;47.14
58622;BME280;44389;51.578;5.456;2024-03-25T11:21:46;100468.97;;;14.49;44.86
58622;BME280;44389;51.578;5.456;2024-03-25T11:24:11;100476.22;;;14.93;45.56
58622;BME280;44389;51.578;5.456;2024-03-25T11:26:41;100471.41;;;16.76;45.16
58622;BME280;44389;51.578;5.456;2024-03-25T11:29:07;100462.75;;;16.48;41.17
58622;BME280;44389;51.578;5.456;2024-03-25T11:31:38;100470.56;;;16.13;40.56
58622;BME280;44389;51.578;5.456;2024-03-25T11:34:04;100467.94;;;15.84;40.80
58622;BME280;44389;51.578;5.456;2024-03-25T11:36:30;100466.94;;;15.40;39.26
58622;BME280;44389;51.578;5.456;2024-03-25T11:39:01;100464.16;;;15.02;42.88
58622;BME280;44389;51.578;5.456;2024-03-25T11:41:31;100451.34;;;15.43;42.04
58622;BME280;44389;51.578;5.456;2024-03-25T11:43:57;100445.31;;;15.63;41.21
58622;BME280;44389;51.578;5.456;2024-03-25T11:46:26;100443.66;;;15.87;42.25
58622;BME280;44389;51.578;5.456;2024-03-25T11:48:54;100451.38;;;15.50;42.04
58622;BME280;44389;51.578;5.456;2024-03-25T11:51:20;100439.28;;;15.64;40.52
58622;BME280;44389;51.578;5.456;2024-03-25T11:53:45;100442.81;;;16.28;40.42
58622;BME280;44389;51.578;5.456;2024-03-25T11:56:11;100428.88;;;16.75;38.67
58622;BME280;44389;51.578;5.456;2024-03-25T11:58:37;100430.66;;;16.61;39.52
58622;BME280;44389;51.578;5.456;2024-03-25T12:01:03;100421.09;;;16.60;40.27
58622;BME280;44389;51.578;5.456;2024-03-25T12:03:28;100420.06;;;17.27;40.51
58622;BME280;44389;51.578;5.456;2024-03-25T12:05:55;100401.25;;;18.13;37.68
58622;BME280;44389;51.578;5.456;2024-03-25T12:08:20;100403.94;;;18.06;36.38
58622;BME280;44389;51.578;5.456;2024-03-25T12:10:47;100390.69;;;19.07;37.57
58622;BME280;44389;51.578;5.456;2024-03-25T12:13:38;100389.34;;;18.72;35.81
58622;BME280;44389;51.578;5.456;2024-03-25T12:16:08;100381.31;;;18.05;34.68
58622;BME280;44389;51.578;5.456;2024-03-25T12:18:35;100376.88;;;16.54;35.97
58622;BME280;44389;51.578;5.456;2024-03-25T12:21:01;100372.66;;;16.14;38.23
58622;BME280;44389;51.578;5.456;2024-03-25T12:23:32;100363.91;;;16.43;37.76
58622;BME280;44389;51.578;5.456;2024-03-25T12:25:59;100360.44;;;16.52;39.31
58622;BME280;44389;51.578;5.456;2024-03-25T12:28:25;100367.09;;;17.30;39.17
58622;BME280;44389;51.578;5.456;2024-03-25T12:30:54;100363.84;;;16.69;37.14
58622;BME280;44389;51.578;5.456;2024-03-25T12:33:21;100357.69;;;16.95;37.61
58622;BME280;44389;51.578;5.456;2024-03-25T12:35:48;100366.34;;;17.03;35.78
58622;BME280;44389;51.578;5.456;2024-03-25T12:38:28;100362.59;;;17.54;37.64
58622;BME280;44389;51.578;5.456;2024-03-25T12:41:23;100365.91;;;17.71;37.17
58622;BME280;44389;51.578;5.456;2024-03-25T12:43:50;100354.09;;;17.24;36.32
58622;BME280;44389;51.578;5.456;2024-03-25T12:46:15;100353.53;;;16.23;37.30